Landels-Hill Big Creek Reserve Entrance, California Weather observations

Data are for 10 minute period ending at time listed.
 Day   Time   Solar   Ave.   Ave.  Ave.  Vector  Max.   Baro.   Total    
  of    of     Rad.   Air    Rel.  Wind   Wind   Wind  Press.  Precip.   
Year   Day            Temp.  Hum.  Speed  Dir.   Gust                    
2017   (PST)  Kw/m2    F      %     mph   deg.    mph    mb.     in.     
-------------------------------------------------------------------------
  84   18:40   0.00   54.2    84    0.9    47     2.4   1015.7    0.00 
  84   18:50   0.00   53.7    86    0.6    52     1.9   1015.8    0.00 
  84   19:00   0.00   53.1    87    1.4    63     2.9   1016.0    0.00 
  84   19:10   0.00   52.6    88    1.2    52     4.2   1016.1    0.00 
  84   19:20   0.00   52.3    89    1.1    35     2.3   1016.1    0.00 
  84   19:30   0.00   52.1    90    1.8    61     3.5   1016.1    0.00 
  84   19:40   0.00   51.9    90    2.2    50     4.3   1016.1    0.00 
  84   19:50   0.00   51.6    90    2.0    39     5.6   1016.2    0.00 
  84   20:00   0.00   51.3    91    1.8    51     3.7   1016.4    0.00 
  84   20:10   0.00   51.1    91    2.2    53     4.5   1016.4    0.00 
  84   20:20   0.00   51.0    91    1.9    64     3.7   1016.4    0.00 
  84   20:30   0.00   50.8    91    2.7    48     5.8   1016.4    0.00 
  84   20:40   0.00   50.7    92    2.4    38     5.8   1016.3    0.00 
  84   20:50   0.00   50.5    92    2.2    60     4.4   1016.4    0.00 
  84   21:00   0.00   50.3    92    2.8    56     5.5   1016.6    0.00 
  84   21:10   0.00   50.1    92    1.8    64     3.7   1016.4    0.00 
  84   21:20   0.00   50.0    92    1.9    81     3.5   1016.3    0.00 
  84   21:30   0.00   49.8    92    2.0    70     4.2   1016.2    0.00 
  84   21:40   0.00   49.7    92    1.9    52     4.7   1016.2    0.00 
  84   21:50   0.00   49.7    92    2.3    49     4.7   1016.1    0.00 
  84   22:00   0.00   49.6    92    1.9    22     4.9   1016.2    0.00 
  84   22:10   0.00   49.5    92    2.3    19     5.5   1016.2    0.00 
  84   22:20   0.00   49.3    92    2.0    51     4.3   1016.2    0.00 
  84   22:30   0.00   49.1    92    2.1    70     3.9   1016.1    0.00 
  84   22:40   0.00   49.0    92    2.1    48     4.7   1015.9    0.00 
  84   22:50   0.00   48.8    93    1.8    42     4.2   1015.9    0.00 
  84   23:00   0.00   48.7    93    2.0    34     4.2   1015.8    0.00 
  84   23:10   0.00   48.4    93    2.0    52     4.2   1015.9    0.00 
  84   23:20   0.00   48.3    93    1.9    41     4.8   1016.0    0.00 
  84   23:30   0.00   48.2    93    1.9    40     4.5   1016.2    0.00 
  84   23:40   0.00   48.1    93    2.4    67     4.3   1016.3    0.00 
  84   23:50   0.00   48.2    93    3.0    20     5.4   1016.3    0.00 
  85    0:00   0.00   48.1    93    2.2    32     5.1   1016.3    0.00 
  85    0:10   0.00   48.0    94    2.1    57     4.9   1016.3    0.00 
  85    0:20   0.00   48.0    94    1.7    60     3.7   1016.2    0.00 
  85    0:30   0.00   48.0    93    2.2    66     4.5   1016.1    0.00 
  85    0:40   0.00   47.9    93    2.4    68     4.9   1016.1    0.00 
  85    0:50   0.00   47.8    93    2.0    65     4.3   1016.3    0.00 
  85    1:00   0.00   47.8    93    1.8    48     4.8   1016.3    0.00 
  85    1:10   0.00   47.6    93    2.4    41     5.3   1016.3    0.00 
  85    1:20   0.00   47.6    94    2.0    51     4.5   1016.1    0.00 
  85    1:30   0.00   47.6    94    2.4    63     4.1   1015.9    0.00 
  85    1:40   0.00   47.8    94    2.2    41     6.1   1016.0    0.00 
  85    1:50   0.00   47.8    93    1.3    36     3.5   1016.1    0.00 
  85    2:00   0.00   47.7    93    1.9    61     3.9   1016.1    0.00 
  85    2:10   0.00   47.6    94    2.2    55     5.5   1015.9    0.00 
  85    2:20   0.00   47.7    94    2.6    47     4.8   1015.8    0.00 
  85    2:30   0.00   47.8    94    2.5    36     6.3   1015.7    0.00 
  85    2:40   0.00   48.1    94    1.7    33     5.6   1015.6    0.00 
  85    2:50   0.00   48.2    94    2.0    38     4.3   1015.5    0.00 
  85    3:00   0.00   48.1    93    2.5    53     4.6   1015.5    0.00 
  85    3:10   0.00   48.0    94    2.0    53     3.9   1015.3    0.00 
  85    3:20   0.00   47.9    94    2.3    54     5.2   1015.3    0.00 
  85    3:30   0.00   47.9    94    1.8    51     5.3   1015.3    0.00 
  85    3:40   0.00   47.9    94    1.3    35     3.8   1015.2    0.00 
  85    3:50   0.00   47.8    94    1.8    44     4.2   1015.0    0.00 
  85    4:00   0.00   47.6    94    2.2    50     3.7   1014.8    0.00 
  85    4:10   0.00   47.8    94    1.4    46     2.8   1014.8    0.00 
  85    4:20   0.00   47.6    94    1.6    34     3.0   1014.9    0.00 
  85    4:30   0.00   47.5    94    1.5    52     3.6   1015.0    0.00 
  85    4:40   0.00   47.4    94    2.6    26     6.3   1014.9    0.00 
  85    4:50   0.00   47.7    94    3.0    38     6.1   1014.8    0.00 
  85    5:00   0.00   47.8    94    1.9    43     5.3   1014.8    0.00 
  85    5:10   0.00   47.8    94    2.7    66     5.1   1014.8    0.00 
  85    5:20   0.00   47.8    94    2.4    69     4.7   1014.8    0.00 
  85    5:30   0.00   47.8    93    2.3    54     4.5   1015.0    0.00 
  85    5:40   0.00   47.8    93    1.2    45     4.1   1015.3    0.00 
  85    5:50   0.00   47.7    92    1.1    70     2.6   1015.5    0.00 
  85    6:00   0.00   47.5    93    1.7    48     3.4   1015.5    0.00 
  85    6:10   0.01   47.3    93    1.1    52     3.1   1015.6    0.00 
  85    6:20   0.01   47.3    93    1.5    54     3.1   1015.6    0.00 
  85    6:30   0.02   47.3    93    2.1    42     4.7   1015.7    0.00 
  85    6:40   0.03   47.7    93    1.3    31     5.4   1015.9    0.00 
  85    6:50   0.04   48.1    93    1.2    48     3.0   1016.0    0.00 
  85    7:00   0.03   48.3    93    1.5    41     2.9   1016.1    0.00 
  85    7:10   0.01   48.3    93    1.3    69     4.0   1016.0    0.00 
  85    7:20   0.05   48.4    93    2.0    48     3.9   1016.0    0.00 
  85    7:30   0.09   49.1    93    1.6    57     3.2   1016.0    0.00 
  85    7:40   0.06   49.9    92    1.0    63     2.6   1016.2    0.00 
  85    7:50   0.08   50.4    92    0.8    91     1.8   1016.2    0.00 
  85    8:00   0.10   51.2    91    1.3    30     3.3   1015.9    0.00 
  85    8:10   0.15   52.2    90    1.4    38     3.2   1015.8    0.00 
  85    8:20   0.13   53.2    86    1.0   186     2.9   1015.9    0.00 
  85    8:30   0.14   53.4    83    1.1   266     3.1   1016.1    0.00 
  85    8:40   0.14   53.7    82    0.6   238     2.5   1016.0    0.00 
  85    8:50   0.27   54.1    82    1.3   212     3.1   1016.3    0.00 
  85    9:00   0.21   54.5    82    1.0   179     2.4   1016.6    0.00 
  85    9:10   0.20   54.0    81    2.3   108     7.3   1016.8    0.00 
  85    9:20   0.24   54.2    77    1.8   180     5.2   1016.9    0.00 
  85    9:30   0.25   55.4    75    0.6   334     2.6   1016.9    0.00 
  85    9:40   0.23   56.2    73    1.2   204     3.2   1016.8    0.00 
  85    9:50   0.26   56.4    74    0.8   204     2.8   1016.8    0.00 
  85   10:00   0.45   56.3    76    1.7   209     3.3   1016.5    0.00 
  85   10:10   0.41   56.1    75    1.9   194     3.4   1016.5    0.00 
  85   10:20   0.30   55.8    73    1.8   151     3.6   1016.9    0.00 
  85   10:30   0.29   55.6    70    2.3   138     4.8   1017.0    0.00 
  85   10:40   0.28   56.0    72    2.0   178     4.9   1017.0    0.00 
  85   10:50   0.30   56.2    73    1.9   168     3.7   1017.1    0.00 
  85   11:00   0.34   55.9    72    2.8   113     6.9   1017.3    0.00 
  85   11:10   0.35   55.9    74    1.8   184     5.8   1017.1    0.00 
  85   11:20   0.50   56.8    73    1.7   171     4.5   1017.0    0.00 
  85   11:30   0.45   57.0    72    2.4   131     6.1   1017.0    0.00 
  85   11:40   0.62   57.2    70    2.7   137     6.8   1016.9    0.00 
  85   11:50   0.65   57.0    66    3.8   117     8.8   1016.9    0.00 
  85   12:00   0.59   57.0    62    4.6   136     9.1   1016.9    0.00 
  85   12:10   0.68   57.2    62    3.7   139     8.2   1016.9    0.00 
  85   12:20   0.64   59.1    58    2.9   173     5.9   1016.8    0.00 
  85   12:30   0.71   57.6    63    3.4    95     7.0   1016.9    0.00 
  85   12:40   0.75   56.9    66    5.0   159    11.2   1017.1    0.00 
  85   12:50   0.78   58.0    62    6.3   160    13.0   1017.3    0.00 
  85   13:00   0.80   57.5    60    8.1   146    15.5   1017.3    0.00 
  85   13:10   0.77   57.9    61    8.0   154    17.0   1017.1    0.00 
  85   13:20   0.60   58.3    62    8.1   168    14.8   1017.0    0.00 
  85   13:30   0.58   58.1    62    7.9   164    15.2   1017.0    0.00 
  85   13:40   0.58   58.2    64    7.3   163    16.5   1017.0    0.00 
  85   13:50   0.57   58.1    65    6.9   166    16.7   1016.9    0.00 
  85   14:00   0.55   58.3    64    6.3   162    16.4   1016.8    0.00 
  85   14:10   0.64   58.6    63    6.6   161    13.0   1016.6    0.00 
  85   14:20   0.71   58.9    62    5.1   177    10.6   1016.6    0.00 
  85   14:30   0.56   58.7    64    4.3   170    11.0   1016.5    0.00 
  85   14:40   0.40   58.4    66    5.1   166    12.9   1016.5    0.00 
  85   14:50   0.41   59.8    60    2.8    23     8.8   1016.4    0.00 
  85   15:00   0.38   60.2    58    2.5   356     7.0   1016.3    0.00 
  85   15:10   0.50   59.2    64    4.6   193     9.1   1016.3    0.00 
  85   15:20   0.55   59.1    66    3.9   178     9.1   1016.3    0.00 
  85   15:30   0.52   60.1    62    2.7   198     8.3   1016.3    0.00 
  85   15:40   0.51   58.8    67    5.7   175     9.5   1016.4    0.00 
  85   15:50   0.48   59.0    68    2.6   180     8.0   1016.3    0.00 
  85   16:00   0.41   59.8    66    3.2   144    10.8   1016.4    0.00 
  85   16:10   0.34   58.4    67    3.9   176     8.8   1016.3    0.00 
  85   16:20   0.24   58.4    66    3.8   151     7.5   1016.0    0.00 
  85   16:30   0.18   57.5    70    3.0   172     9.3   1016.0    0.00 
  85   16:40   0.16   56.9    73    3.3   164     9.4   1016.0    0.00 
  85   16:50   0.16   57.6    72    2.4   187     6.4   1015.9    0.00 
  85   17:00   0.12   57.4    72    2.8   173     8.2   1015.8    0.00 
  85   17:10   0.10   57.5    71    1.1   186     5.3   1015.6    0.00 
  85   17:20   0.08   57.8    71    0.9   206     3.1   1015.4    0.00 
  85   17:30   0.06   57.9    72    0.3   170     1.5   1015.4    0.00 
  85   17:40   0.04   57.8    71    1.5    48     6.6   1015.6    0.00 
  85   17:50   0.03   57.4    70    3.4    58     6.5   1015.7    0.00 
  85   18:00   0.03   57.3    70    1.6    72     4.7   1015.8    0.00 
  85   18:10   0.01   57.3    70    1.2    60     4.4   1015.9    0.00 
  85   18:20   0.01   57.3    72    0.3    29     1.2   1015.9    0.00 
  85   18:30   0.01   56.8    75    0.3    50     1.6   1016.0    0.00 

Return to Big Creek Reserve Entrance graphs page.


Western Regional Climate Center,wrcc@dri.edu